Time;durP1;ratioP1;P1;durP2;ratioP2;P2;SDS_P1;SDS_P2;PMS_P1;PMS_P2;Temp;Humidity;BMP_temperature;BMP_pressure;BME280_temperature;BME280_humidity;BME280_pressure;Samples;Min_cycle;Max_cycle;Signal;HPM_P1;HPM_P2
2023/04/07 00:01:23;;;;;;;7.82;4.85;;;2.40;99.90;;;;;;5044976;28;20071;-61
2023/04/07 00:03:50;;;;;;;6.85;3.58;;;2.30;99.90;;;;;;5053483;28;20052;-61
2023/04/07 00:06:17;;;;;;;7.40;4.40;;;2.40;99.90;;;;;;5053142;28;20056;-61
2023/04/07 00:08:44;;;;;;;10.55;5.30;;;2.30;99.90;;;;;;5046363;28;20041;-61
2023/04/07 00:11:11;;;;;;;13.00;5.55;;;2.30;99.90;;;;;;5052102;28;20086;-61
2023/04/07 00:13:37;;;;;;;11.90;6.03;;;2.30;99.90;;;;;;5053029;28;20045;-61
2023/04/07 00:16:05;;;;;;;14.55;6.40;;;2.20;99.90;;;;;;5053021;28;20029;-61
2023/04/07 00:18:31;;;;;;;12.52;5.93;;;2.20;99.90;;;;;;5044646;28;20041;-61
2023/04/07 00:20:58;;;;;;;14.10;6.03;;;2.20;99.90;;;;;;5053120;28;20091;-61
2023/04/07 00:23:26;;;;;;;9.80;4.18;;;2.00;99.90;;;;;;5067179;22;20049;-50
2023/04/07 00:25:53;;;;;;;12.40;5.05;;;1.70;99.90;;;;;;5030720;28;20057;-49
2023/04/07 00:28:40;;;;;;;9.38;5.00;;;1.60;99.90;;;;;;5055808;28;20068;-54
2023/04/07 00:31:07;;;;;;;6.70;4.68;;;1.50;99.90;;;;;;5054416;28;20101;-50
2023/04/07 00:33:34;;;;;;;7.47;4.40;;;1.50;99.90;;;;;;5066399;28;20116;-50
2023/04/07 00:36:01;;;;;;;8.93;4.88;;;1.50;99.90;;;;;;5053031;28;20053;-49
2023/04/07 00:38:27;;;;;;;11.98;6.10;;;1.60;99.90;;;;;;5051139;28;20052;-50
2023/04/07 00:40:58;;;;;;;6.30;3.33;;;1.60;99.90;;;;;;5028152;28;20141;-50
2023/04/07 00:43:25;;;;;;;9.20;5.07;;;1.60;99.90;;;;;;5033773;28;20044;-49
2023/04/07 00:45:53;;;;;;;;;;;1.50;99.90;;;;;;5051404;28;20087;-50
2023/04/07 00:48:20;;;;;;;8.45;4.55;;;1.40;99.90;;;;;;5034224;28;19931;-50
2023/04/07 00:50:47;;;;;;;7.90;4.72;;;1.40;99.90;;;;;;5053080;28;20045;-50
2023/04/07 00:53:15;;;;;;;11.13;5.72;;;1.50;99.90;;;;;;5042071;28;20449;-51
2023/04/07 00:55:42;;;;;;;9.98;4.15;;;1.50;99.90;;;;;;5018303;28;20049;-50
2023/04/07 00:58:09;;;;;;;8.75;5.05;;;1.60;99.90;;;;;;5052423;28;20087;-51
2023/04/07 01:00:50;;;;;;;7.97;5.18;;;1.70;99.90;;;;;;5044589;28;20578;-50
2023/04/07 01:03:22;;;;;;;9.93;5.00;;;1.70;99.90;;;;;;5034895;28;20395;-50
2023/04/07 01:05:56;;;;;;;9.40;4.55;;;1.80;99.90;;;;;;5050533;28;20144;-50
2023/04/07 01:08:32;;;;;;;11.10;4.38;;;1.90;99.90;;;;;;5050331;28;20401;-50
2023/04/07 01:11:23;;;;;;;9.55;4.95;;;1.90;99.90;;;;;;5034609;28;20127;-50
2023/04/07 01:13:52;;;;;;;13.02;5.10;;;1.80;99.90;;;;;;5050183;28;20041;-48
2023/04/07 01:16:36;;;;;;;8.82;5.43;;;1.80;99.90;;;;;;5042097;28;20046;-49
2023/04/07 01:19:27;;;;;;;9.43;4.97;;;1.80;99.90;;;;;;5020185;28;20049;-49
2023/04/07 01:21:59;;;;;;;10.00;5.93;;;1.70;99.90;;;;;;5007542;28;20072;-50
2023/04/07 01:25:05;;;;;;;9.05;5.07;;;1.70;99.90;;;;;;5050633;28;20098;-48
2023/04/07 01:27:58;;;;;;;9.90;4.68;;;1.70;99.90;;;;;;5033896;28;20090;-49
2023/04/07 01:30:31;;;;;;;8.68;4.50;;;1.70;99.90;;;;;;5049796;28;20388;-51
2023/04/07 01:32:59;;;;;;;9.95;4.78;;;1.70;99.90;;;;;;5032102;28;20041;-50
2023/04/07 01:35:32;;;;;;;10.13;4.97;;;1.70;99.90;;;;;;5018566;28;20448;-50
2023/04/07 01:37:59;;;;;;;8.25;5.00;;;1.60;99.90;;;;;;5049946;28;20576;-50
2023/04/07 01:40:28;;;;;;;9.55;5.22;;;1.50;99.90;;;;;;5017089;28;20453;-53
2023/04/07 01:42:56;;;;;;;9.18;5.10;;;1.50;99.90;;;;;;5021148;28;20046;-49
2023/04/07 01:45:26;;;;;;;9.80;5.00;;;1.40;99.90;;;;;;5050492;28;20045;-50
2023/04/07 01:47:54;;;;;;;9.27;5.22;;;1.50;99.90;;;;;;5050429;28;20099;-51
2023/04/07 01:50:22;;;;;;;9.63;4.80;;;1.50;99.90;;;;;;5044098;28;20383;-50
2023/04/07 01:52:49;;;;;;;11.20;4.65;;;1.50;99.90;;;;;;5038465;28;20033;-49
2023/04/07 01:55:16;;;;;;;10.55;5.38;;;1.50;99.90;;;;;;5039963;28;20045;-49
2023/04/07 01:57:53;;;;;;;10.77;4.80;;;1.40;99.90;;;;;;5013977;28;20379;-50
2023/04/07 02:00:20;;;;;;;11.73;5.95;;;1.40;99.90;;;;;;5012244;28;20042;-49
2023/04/07 02:02:57;;;;;;;10.52;5.25;;;1.50;99.90;;;;;;5030204;28;20049;-51
2023/04/07 02:05:26;;;;;;;9.70;5.88;;;1.50;99.90;;;;;;5011710;28;20042;-49
2023/04/07 02:07:59;;;;;;;9.80;5.82;;;1.50;99.90;;;;;;5016012;28;20049;-50
2023/04/07 02:10:28;;;;;;;12.80;5.85;;;1.40;99.90;;;;;;5046290;28;20125;-50
2023/04/07 02:13:00;;;;;;;9.70;4.65;;;1.40;99.90;;;;;;5049951;28;20408;-49
2023/04/07 02:15:29;;;;;;;11.48;4.82;;;1.30;99.90;;;;;;5050111;28;20049;-51
2023/04/07 02:17:58;;;;;;;14.13;5.05;;;1.30;99.90;;;;;;5031867;28;20681;-51
2023/04/07 02:20:27;;;;;;;9.00;5.00;;;1.20;99.90;;;;;;5020339;28;20037;-49
2023/04/07 02:22:54;;;;;;;9.32;4.53;;;1.20;99.90;;;;;;5019063;28;20045;-54
2023/04/07 02:25:26;;;;;;;9.27;4.75;;;1.10;99.90;;;;;;5033321;28;20045;-52
2023/04/07 02:27:55;;;;;;;9.40;5.03;;;1.10;99.90;;;;;;5050827;28;20052;-49
2023/04/07 02:30:22;;;;;;;9.40;4.80;;;1.10;99.90;;;;;;5042912;28;20088;-48
2023/04/07 02:32:50;;;;;;;12.02;5.47;;;1.10;99.90;;;;;;5045900;28;20040;-52
2023/04/07 02:35:17;;;;;;;9.30;4.88;;;1.10;99.90;;;;;;5029077;28;20037;-50
2023/04/07 02:37:45;;;;;;;14.13;4.53;;;1.10;99.90;;;;;;5048482;28;20477;-53
2023/04/07 02:40:12;;;;;;;8.23;4.82;;;1.10;99.90;;;;;;5031921;28;20127;-51
2023/04/07 02:42:39;;;;;;;;;;;1.10;99.90;;;;;;5051665;28;20049;-51
2023/04/07 02:45:07;;;;;;;12.80;4.60;;;1.10;99.90;;;;;;5040230;28;19927;-50
2023/04/07 02:47:37;;;;;;;8.70;4.93;;;1.00;99.90;;;;;;5008701;28;20084;-54
2023/04/07 02:50:04;;;;;;;8.10;4.50;;;1.00;99.90;;;;;;5054064;28;20063;-51
2023/04/07 02:52:33;;;;;;;8.60;4.43;;;1.00;99.90;;;;;;5055240;28;20059;-51
2023/04/07 02:55:04;;;;;;;12.10;5.38;;;0.90;99.90;;;;;;5053824;28;20041;-51
2023/04/07 02:57:30;;;;;;;11.25;5.07;;;0.80;99.90;;;;;;5021995;28;20132;-51
2023/04/07 03:00:01;;;;;;;8.52;4.95;;;0.60;99.90;;;;;;5016891;28;20049;-51
2023/04/07 03:02:43;;;;;;;12.77;4.47;;;0.60;99.90;;;;;;5032970;28;20120;-51
2023/04/07 03:05:11;;;;;;;11.35;4.78;;;0.60;99.90;;;;;;5036337;28;20069;-52
2023/04/07 03:07:38;;;;;;;8.25;4.10;;;0.70;99.90;;;;;;5032888;28;20049;-50
2023/04/07 03:10:07;;;;;;;14.73;4.88;;;0.70;99.90;;;;;;5032726;28;20095;-50
2023/04/07 03:12:34;;;;;;;9.88;4.50;;;0.80;99.90;;;;;;5022830;28;20048;-50
2023/04/07 03:15:01;;;;;;;8.90;4.85;;;0.80;99.90;;;;;;5013344;28;20132;-51
2023/04/07 03:17:30;;;;;;;9.70;4.53;;;0.90;99.90;;;;;;5008171;28;20577;-51
2023/04/07 03:19:57;;;;;;;8.32;5.15;;;0.90;99.90;;;;;;5001644;28;20059;-52
2023/04/07 03:22:25;;;;;;;10.70;5.50;;;1.00;99.90;;;;;;5000655;28;20073;-50
2023/04/07 03:24:53;;;;;;;8.43;4.90;;;1.00;99.90;;;;;;5010830;28;20498;-52
2023/04/07 03:27:22;;;;;;;10.20;5.30;;;1.10;99.90;;;;;;5053062;28;20079;-50
2023/04/07 03:29:50;;;;;;;9.68;4.97;;;1.10;99.90;;;;;;5052582;28;20075;-51
2023/04/07 03:32:17;;;;;;;13.63;6.63;;;1.20;99.90;;;;;;5004637;28;20053;-50
2023/04/07 03:34:44;;;;;;;13.07;6.50;;;1.10;99.90;;;;;;5018460;28;20045;-51
2023/04/07 03:37:12;;;;;;;13.60;6.45;;;1.20;99.90;;;;;;5028633;28;20136;-51
2023/04/07 03:39:40;;;;;;;15.48;6.95;;;1.20;99.90;;;;;;5011348;28;20046;-51
2023/04/07 03:42:21;;;;;;;13.43;6.85;;;1.30;99.90;;;;;;5000579;28;20049;-51
2023/04/07 03:44:50;;;;;;;12.52;6.30;;;1.20;99.90;;;;;;5021373;28;20132;-51
2023/04/07 03:47:17;;;;;;;13.23;5.07;;;1.20;99.90;;;;;;5015445;28;20521;-51
2023/04/07 03:49:49;;;;;;;14.15;5.47;;;1.10;99.90;;;;;;5003794;28;20104;-50
2023/04/07 03:52:16;;;;;;;12.55;6.13;;;1.00;99.90;;;;;;5001291;28;20410;-52
2023/04/07 03:54:47;;;;;;;14.60;6.53;;;0.90;99.90;;;;;;5008820;28;20041;-50
2023/04/07 03:57:14;;;;;;;16.17;7.35;;;0.90;99.90;;;;;;5016143;28;20137;-51
2023/04/07 03:59:49;;;;;;;11.90;6.25;;;0.90;99.90;;;;;;5027131;28;20068;-50
2023/04/07 04:02:17;;;;;;;9.40;5.88;;;0.90;99.90;;;;;;5017735;28;20046;-51
2023/04/07 04:04:48;;;;;;;12.63;6.53;;;0.90;99.90;;;;;;5017888;28;20044;-51
2023/04/07 04:07:15;;;;;;;16.23;6.38;;;0.90;99.90;;;;;;5020805;28;20049;-50
2023/04/07 04:09:49;;;;;;;13.70;6.68;;;0.90;99.90;;;;;;5015805;28;20041;-50
2023/04/07 04:12:17;;;;;;;10.95;6.05;;;0.90;99.90;;;;;;5019458;28;20037;-50
2023/04/07 04:14:56;;;;;;;13.05;7.40;;;1.00;99.90;;;;;;5050927;28;20097;-50
2023/04/07 04:17:24;;;;;;;15.57;6.93;;;1.10;99.90;;;;;;5051894;28;20056;-51
2023/04/07 04:19:53;;;;;;;17.20;7.38;;;1.10;99.90;;;;;;5027806;28;20052;-51
2023/04/07 04:22:40;;;;;;;15.82;7.72;;;1.10;99.90;;;;;;5022834;28;20056;-50
2023/04/07 04:25:07;;;;;;;15.48;7.22;;;1.20;99.90;;;;;;5023504;28;20079;-50
2023/04/07 04:27:34;;;;;;;18.58;7.85;;;1.20;99.90;;;;;;5051962;28;20076;-51
2023/04/07 04:30:07;;;;;;;15.43;8.30;;;1.20;99.90;;;;;;5050382;28;20041;-51
2023/04/07 04:32:43;;;;;;;12.80;6.97;;;1.30;99.90;;;;;;5010975;28;20050;-51
2023/04/07 04:35:11;;;;;;;15.77;7.45;;;1.30;99.90;;;;;;5030880;28;20095;-51
2023/04/07 04:37:47;;;;;;;15.10;7.72;;;1.40;99.90;;;;;;5051934;28;20052;-50
2023/04/07 04:40:14;;;;;;;17.92;7.25;;;1.40;99.90;;;;;;5001473;28;20517;-49
2023/04/07 04:42:45;;;;;;;15.35;6.88;;;1.40;99.90;;;;;;5012791;28;20042;-51
2023/04/07 04:45:13;;;;;;;11.98;5.97;;;1.50;99.90;;;;;;5006711;28;20045;-49
2023/04/07 04:47:44;;;;;;;19.58;7.00;;;1.50;99.90;;;;;;5007675;28;20044;-52
2023/04/07 04:50:11;;;;;;;14.00;6.90;;;1.50;99.90;;;;;;5032886;28;20552;-49
2023/04/07 04:52:40;;;;;;;16.52;6.78;;;1.50;99.90;;;;;;5033703;28;20139;-48
2023/04/07 04:55:14;;;;;;;17.83;7.07;;;1.50;99.90;;;;;;5008758;28;20556;-48
2023/04/07 04:57:42;;;;;;;11.50;6.93;;;1.60;99.90;;;;;;5012967;28;20046;-50
2023/04/07 05:00:12;;;;;;;9.45;6.03;;;1.60;99.90;;;;;;5029720;28;20052;-50
2023/04/07 05:02:41;;;;;;;15.50;6.97;;;1.60;99.90;;;;;;5008915;28;20053;-51
2023/04/07 05:05:09;;;;;;;11.60;7.05;;;1.70;99.90;;;;;;5032985;28;20049;-51
2023/04/07 05:07:37;;;;;;;12.90;6.57;;;1.70;99.90;;;;;;5052104;28;20080;-49
2023/04/07 05:10:06;;;;;;;13.35;6.90;;;1.80;99.90;;;;;;5039294;28;20411;-49
2023/04/07 05:12:35;;;;;;;14.13;6.68;;;1.90;99.90;;;;;;5023408;28;20052;-48
2023/04/07 05:15:02;;;;;;;11.02;6.50;;;1.90;99.90;;;;;;5051951;28;20045;-48
2023/04/07 05:17:30;;;;;;;16.67;6.70;;;1.90;99.90;;;;;;5027852;28;20055;-49
2023/04/07 05:19:59;;;;;;;12.00;6.00;;;1.90;99.90;;;;;;5009403;28;20048;-49
2023/04/07 05:22:35;;;;;;;14.00;6.97;;;1.80;99.90;;;;;;5014676;28;20080;-49
2023/04/07 05:25:03;;;;;;;11.45;6.05;;;1.80;99.90;;;;;;5013763;28;20073;-50
2023/04/07 05:27:30;;;;;;;12.10;6.57;;;1.80;99.90;;;;;;5019504;28;20136;-48
2023/04/07 05:30:02;;;;;;;23.38;8.23;;;1.80;99.90;;;;;;5050280;28;20045;-50
2023/04/07 05:32:32;;;;;;;20.08;8.60;;;1.80;99.90;;;;;;5033749;28;20041;-52
2023/04/07 05:35:06;;;;;;;14.00;8.40;;;1.80;99.90;;;;;;5024844;28;20044;-52
2023/04/07 05:37:37;;;;;;;15.63;7.72;;;1.90;99.90;;;;;;5048931;28;20033;-49
2023/04/07 05:40:06;;;;;;;18.70;8.30;;;1.90;99.90;;;;;;5047151;28;20056;-52
2023/04/07 05:42:32;;;;;;;;;;;2.00;99.90;;;;;;5051841;28;20605;-51
2023/04/07 05:45:01;;;;;;;18.55;7.88;;;2.00;99.90;;;;;;5028974;28;20413;-50
2023/04/07 05:47:28;;;;;;;15.98;8.05;;;2.10;99.90;;;;;;5007317;28;20045;-51
2023/04/07 05:49:55;;;;;;;15.05;7.55;;;2.10;99.90;;;;;;5007402;28;20041;-50
2023/04/07 05:52:22;;;;;;;20.35;8.43;;;2.00;99.90;;;;;;5015146;28;20179;-50
2023/04/07 05:54:57;;;;;;;14.35;8.40;;;2.00;99.90;;;;;;5028773;28;20041;-51
2023/04/07 05:57:27;;;;;;;14.50;8.25;;;2.10;99.90;;;;;;5049483;28;20071;-51
2023/04/07 05:59:55;;;;;;;18.75;8.73;;;2.10;99.90;;;;;;5049535;28;20052;-52
2023/04/07 06:02:23;;;;;;;18.27;9.07;;;2.10;99.90;;;;;;5022587;28;20092;-50
2023/04/07 06:04:50;;;;;;;19.50;8.98;;;2.00;99.90;;;;;;5046248;28;20498;-51
2023/04/07 06:07:18;;;;;;;18.33;8.50;;;2.00;99.90;;;;;;5033394;28;20525;-50
2023/04/07 06:09:45;;;;;;;13.38;6.22;;;2.10;99.90;;;;;;5028376;28;20490;-50
2023/04/07 06:12:13;;;;;;;15.70;8.18;;;2.10;99.90;;;;;;5028048;28;20044;-51
2023/04/07 06:14:40;;;;;;;15.90;8.43;;;2.20;99.90;;;;;;5004796;28;20046;-52
2023/04/07 06:17:07;;;;;;;16.35;8.60;;;2.20;99.90;;;;;;5003365;28;20441;-53
2023/04/07 06:19:34;;;;;;;17.35;8.80;;;2.30;99.90;;;;;;5015647;28;20053;-50
2023/04/07 06:22:01;;;;;;;21.08;9.25;;;2.30;99.90;;;;;;5026487;28;20061;-50
2023/04/07 06:24:27;;;;;;;17.95;8.95;;;2.30;99.90;;;;;;5002088;28;20054;-51
2023/04/07 06:26:55;;;;;;;;;;;2.40;99.90;;;;;;5004150;28;20136;-51
2023/04/07 06:29:22;;;;;;;17.75;9.23;;;2.40;99.90;;;;;;5035347;28;20292;-51
2023/04/07 06:31:50;;;;;;;18.35;9.23;;;2.40;99.90;;;;;;5061249;22;20045;-53
2023/04/07 06:34:18;;;;;;;18.42;9.23;;;2.40;99.90;;;;;;5044301;28;20106;-51
2023/04/07 06:36:44;;;;;;;24.85;9.90;;;2.50;99.90;;;;;;5070495;28;20524;-50
2023/04/07 06:39:12;;;;;;;19.13;9.57;;;2.50;99.90;;;;;;5070749;28;20040;-48
2023/04/07 06:41:41;;;;;;;20.40;9.43;;;2.50;99.90;;;;;;5069026;28;20032;-49
2023/04/07 06:44:12;;;;;;;21.50;9.65;;;2.50;99.90;;;;;;5052685;28;20091;-51
2023/04/07 06:46:40;;;;;;;17.35;8.93;;;2.50;99.90;;;;;;5080626;28;20064;-50
2023/04/07 06:49:07;;;;;;;19.55;9.15;;;2.60;99.90;;;;;;5090582;28;20616;-50
2023/04/07 06:51:34;;;;;;;15.27;8.95;;;2.60;99.90;;;;;;5081297;28;20094;-51
2023/04/07 06:54:00;;;;;;;12.68;6.78;;;2.60;99.90;;;;;;5086438;28;20036;-50
2023/04/07 06:56:27;;;;;;;21.77;9.55;;;2.70;99.90;;;;;;5090370;28;20071;-50
2023/04/07 06:58:54;;;;;;;19.45;8.75;;;2.70;99.90;;;;;;5090670;28;20043;-50
2023/04/07 07:01:21;;;;;;;12.45;7.03;;;2.70;99.90;;;;;;5065611;28;20040;-48
2023/04/07 07:03:48;;;;;;;20.25;9.52;;;2.80;99.90;;;;;;5091041;28;20463;-50
2023/04/07 07:06:15;;;;;;;17.80;9.48;;;2.80;99.90;;;;;;5090738;28;20122;-51
2023/04/07 07:08:42;;;;;;;13.40;7.63;;;2.90;99.90;;;;;;5082897;28;20551;-51
2023/04/07 07:11:08;;;;;;;15.93;7.57;;;3.00;99.90;;;;;;5071580;28;20061;-50
2023/04/07 07:13:35;;;;;;;17.48;9.68;;;3.00;99.90;;;;;;5090791;28;20040;-50
2023/04/07 07:16:02;;;;;;;18.58;9.65;;;3.00;99.90;;;;;;5064476;28;20064;-50
2023/04/07 07:18:29;;;;;;;22.25;10.00;;;3.10;99.90;;;;;;5072279;28;20052;-49
2023/04/07 07:20:57;;;;;;;22.25;10.82;;;3.10;99.90;;;;;;5070453;28;20076;-50
2023/04/07 07:23:24;;;;;;;19.63;9.85;;;3.10;99.90;;;;;;5064869;28;20087;-50
2023/04/07 07:25:50;;;;;;;23.50;9.98;;;3.20;99.90;;;;;;5070672;28;20093;-49
2023/04/07 07:28:17;;;;;;;15.68;7.97;;;3.20;99.90;;;;;;5069741;28;20075;-52
2023/04/07 07:30:44;;;;;;;27.90;12.32;;;3.20;99.90;;;;;;5069261;28;20373;-49
2023/04/07 07:33:10;;;;;;;30.15;13.27;;;3.10;99.90;;;;;;5083409;28;20071;-49
2023/04/07 07:35:37;;;;;;;31.63;11.93;;;3.10;99.90;;;;;;5072677;28;20357;-51
2023/04/07 07:38:05;;;;;;;22.20;12.30;;;3.20;99.90;;;;;;5070429;28;20137;-50
2023/04/07 07:40:32;;;;;;;28.50;11.60;;;3.30;99.90;;;;;;5081159;28;20151;-50
2023/04/07 07:42:59;;;;;;;29.75;13.25;;;3.40;99.90;;;;;;5075225;28;20045;-49
2023/04/07 07:45:26;;;;;;;;;;;3.50;99.90;;;;;;5087285;28;20461;-53
2023/04/07 07:47:53;;;;;;;28.35;12.48;;;3.60;99.90;;;;;;5093648;28;19959;-49
2023/04/07 07:50:20;;;;;;;20.13;10.80;;;3.70;99.90;;;;;;5093582;28;20047;-50
2023/04/07 07:52:47;;;;;;;21.20;11.10;;;3.80;99.90;;;;;;5079539;28;20056;-50
2023/04/07 07:55:13;;;;;;;19.42;10.40;;;3.90;99.90;;;;;;5092990;28;20415;-49
2023/04/07 07:57:40;;;;;;;17.75;6.32;;;4.00;99.90;;;;;;5094004;28;20048;-49
2023/04/07 08:00:07;;;;;;;26.77;10.32;;;4.00;99.90;;;;;;5093732;28;20074;-53
2023/04/07 08:02:43;;;;;;;23.25;11.15;;;4.10;99.90;;;;;;5084761;28;20040;-49
2023/04/07 08:05:10;;;;;;;18.27;10.07;;;4.30;99.90;;;;;;5093773;28;20381;-51
2023/04/07 08:07:37;;;;;;;13.77;7.15;;;4.40;99.90;;;;;;5075764;28;20032;-50
2023/04/07 08:10:04;;;;;;;20.90;9.80;;;4.40;99.90;;;;;;5063047;28;20377;-49
2023/04/07 08:12:31;;;;;;;24.40;11.00;;;4.50;99.90;;;;;;5093589;28;20093;-50
2023/04/07 08:14:57;;;;;;;26.13;11.23;;;4.60;99.90;;;;;;5082241;28;20072;-52
2023/04/07 08:17:24;;;;;;;27.58;12.75;;;4.60;99.90;;;;;;5093718;28;20362;-47
2023/04/07 08:19:51;;;;;;;23.40;11.43;;;4.70;99.90;;;;;;5092450;28;20400;-49
2023/04/07 08:22:20;;;;;;;25.08;12.27;;;4.70;99.90;;;;;;5093340;28;20070;-49
2023/04/07 08:24:47;;;;;;;29.80;14.68;;;4.80;99.90;;;;;;5083296;28;20041;-49
2023/04/07 08:27:14;;;;;;;17.17;8.38;;;4.90;99.90;;;;;;5072792;28;20505;-50
2023/04/07 08:29:40;;;;;;;24.48;12.02;;;5.00;99.90;;;;;;5082618;28;20044;-49
2023/04/07 08:32:07;;;;;;;22.90;11.20;;;5.20;99.90;;;;;;5074726;28;20493;-51
2023/04/07 08:34:34;;;;;;;19.75;10.05;;;5.20;99.90;;;;;;5093504;28;20427;-49
2023/04/07 08:37:01;;;;;;;20.65;10.02;;;5.20;99.90;;;;;;5066936;28;20095;-49
2023/04/07 08:39:28;;;;;;;19.13;9.23;;;5.30;99.90;;;;;;5093066;28;20085;-49
2023/04/07 08:41:56;;;;;;;26.48;11.02;;;5.40;99.90;;;;;;5092770;28;20523;-49
2023/04/07 08:44:26;;;;;;;20.73;10.32;;;5.40;99.90;;;;;;5090306;28;20048;-50
2023/04/07 08:46:58;;;;;;;18.65;9.93;;;5.60;99.90;;;;;;5086816;28;20054;-47
2023/04/07 08:49:28;;;;;;;22.20;10.23;;;5.70;99.90;;;;;;5092683;28;20036;-47
2023/04/07 08:51:58;;;;;;;14.55;8.98;;;5.90;99.90;;;;;;5093068;28;20040;-48
2023/04/07 08:54:25;;;;;;;18.92;9.82;;;6.00;99.90;;;;;;5068108;28;20067;-49
2023/04/07 08:56:52;;;;;;;23.13;11.15;;;6.20;99.90;;;;;;5092800;28;20499;-48
2023/04/07 08:59:24;;;;;;;19.40;9.90;;;6.40;99.90;;;;;;5092104;28;20052;-47
2023/04/07 09:01:51;;;;;;;16.30;9.70;;;6.50;99.90;;;;;;5092984;28;20553;-49
2023/04/07 09:04:18;;;;;;;;;;;6.60;99.90;;;;;;5081965;28;20561;-47
2023/04/07 09:06:44;;;;;;;19.60;9.82;;;6.90;99.90;;;;;;5092783;28;19926;-50
2023/04/07 09:09:11;;;;;;;27.15;9.50;;;7.10;99.90;;;;;;5092468;28;20135;-49
2023/04/07 09:11:41;;;;;;;20.95;9.48;;;7.50;99.90;;;;;;5084221;28;20040;-47
2023/04/07 09:14:07;;;;;;;23.30;10.27;;;7.80;99.90;;;;;;5089883;28;20546;-47
2023/04/07 09:16:34;;;;;;;16.90;8.93;;;8.10;99.90;;;;;;5087858;28;20048;-49
2023/04/07 09:19:01;;;;;;;21.25;9.60;;;8.20;99.90;;;;;;5087651;28;20051;-48
2023/04/07 09:21:47;;;;;;;13.98;8.77;;;8.20;99.90;;;;;;5091437;28;20420;-50
2023/04/07 09:24:21;;;;;;;14.40;9.30;;;8.20;99.90;;;;;;5092704;28;20040;-48
2023/04/07 09:26:48;;;;;;;20.15;9.65;;;8.40;99.90;;;;;;5056821;28;20053;-47
2023/04/07 09:29:19;;;;;;;22.35;8.80;;;8.80;99.90;;;;;;5071433;28;20101;-49
2023/04/07 09:31:50;;;;;;;14.38;8.77;;;8.90;99.90;;;;;;5083642;28;20097;-48
2023/04/07 09:34:33;;;;;;;13.63;8.63;;;9.10;99.90;;;;;;5091838;28;20562;-48
2023/04/07 09:37:00;;;;;;;17.73;8.48;;;9.30;99.90;;;;;;5084372;28;20055;-47
2023/04/07 09:39:28;;;;;;;16.85;8.02;;;9.30;99.90;;;;;;5091612;28;20452;-49
2023/04/07 09:41:54;;;;;;;;;;;9.40;99.90;;;;;;5091705;28;20055;-48
2023/04/07 09:44:22;;;;;;;13.10;8.10;;;9.50;99.10;;;;;;5081471;28;19920;-51
2023/04/07 09:46:56;;;;;;;17.63;7.95;;;9.70;98.40;;;;;;5071525;28;20072;-48
2023/04/07 09:49:26;;;;;;;15.52;8.40;;;9.80;99.10;;;;;;5068795;28;20047;-50
2023/04/07 09:51:58;;;;;;;13.77;8.55;;;9.90;99.90;;;;;;5073661;28;20056;-48
2023/04/07 09:54:33;;;;;;;18.70;8.23;;;10.20;99.90;;;;;;5090465;28;20104;-48
2023/04/07 09:57:02;;;;;;;12.38;7.43;;;10.30;97.80;;;;;;5081717;28;20162;-47
2023/04/07 09:59:30;;;;;;;12.90;8.15;;;10.40;97.00;;;;;;5077439;28;20074;-47
2023/04/07 10:01:57;;;;;;;14.60;8.65;;;10.50;96.80;;;;;;5091407;28;20068;-48
2023/04/07 10:04:24;;;;;;;;;;;10.50;97.20;;;;;;5073956;28;20052;-49
2023/04/07 10:06:55;;;;;;;20.27;8.55;;;10.60;96.10;;;;;;5073423;28;19966;-47
2023/04/07 10:09:30;;;;;;;13.45;8.27;;;10.50;97.80;;;;;;5063172;28;20072;-47
2023/04/07 10:11:58;;;;;;;13.38;8.07;;;10.70;97.10;;;;;;5070805;28;20040;-48
2023/04/07 10:14:27;;;;;;;15.10;8.20;;;10.80;96.20;;;;;;5068936;28;20036;-48
2023/04/07 10:16:54;;;;;;;15.10;7.47;;;10.90;95.60;;;;;;5087874;28;20140;-47
2023/04/07 10:19:23;;;;;;;13.15;8.73;;;11.00;95.50;;;;;;5070379;28;20043;-49
2023/04/07 10:21:54;;;;;;;11.38;7.95;;;11.10;94.50;;;;;;5071331;28;20513;-48
2023/04/07 10:24:53;;;;;;;10.30;7.50;;;10.90;94.60;;;;;;5052678;28;20139;-50
2023/04/07 10:27:28;;;;;;;11.75;7.00;;;10.80;93.90;;;;;;5069921;28;20097;-48
2023/04/07 10:29:57;;;;;;;12.07;7.45;;;11.00;94.80;;;;;;5087619;28;20044;-48
2023/04/07 10:32:24;;;;;;;13.75;7.65;;;11.30;94.60;;;;;;5070501;28;20136;-48
2023/04/07 10:34:52;;;;;;;14.55;7.90;;;11.10;93.00;;;;;;5070744;28;20052;-49
2023/04/07 10:37:21;;;;;;;11.55;7.47;;;11.20;94.20;;;;;;5082702;28;20158;-48
2023/04/07 10:39:52;;;;;;;13.45;7.32;;;11.60;92.40;;;;;;5074531;28;20459;-49
2023/04/07 10:42:40;;;;;;;12.82;7.85;;;11.70;93.10;;;;;;5070929;28;20072;-47
2023/04/07 10:45:11;;;;;;;10.43;7.10;;;11.90;93.00;;;;;;5064940;28;20068;-47
2023/04/07 10:47:56;;;;;;;13.93;7.70;;;12.00;92.80;;;;;;5071129;28;20052;-48
2023/04/07 10:50:24;;;;;;;15.93;8.20;;;12.10;92.50;;;;;;5070848;28;20045;-50
2023/04/07 10:53:12;;;;;;;12.00;7.93;;;12.10;91.50;;;;;;5061505;28;20087;-49
2023/04/07 10:55:45;;;;;;;11.90;7.47;;;12.00;92.40;;;;;;5074147;28;20509;-49
2023/04/07 10:58:23;;;;;;;10.93;6.97;;;12.10;92.90;;;;;;5070389;28;20040;-47
2023/04/07 11:00:59;;;;;;;11.45;7.20;;;12.10;91.90;;;;;;5070851;28;20086;-48
2023/04/07 11:03:28;;;;;;;11.63;8.00;;;12.10;92.20;;;;;;5067143;28;20047;-48
2023/04/07 11:06:09;;;;;;;13.70;7.63;;;12.20;91.90;;;;;;5071488;28;20066;-50
2023/04/07 11:08:37;;;;;;;10.82;7.13;;;12.30;91.20;;;;;;5074588;28;20051;-47
2023/04/07 11:11:07;;;;;;;10.95;6.70;;;12.30;92.40;;;;;;5075446;28;20097;-48
2023/04/07 11:13:41;;;;;;;10.77;7.22;;;12.30;91.30;;;;;;5080608;28;20123;-47
2023/04/07 11:16:08;;;;;;;11.90;7.55;;;12.40;92.60;;;;;;5074326;28;20110;-48
2023/04/07 11:18:35;;;;;;;;;;;12.00;91.80;;;;;;5068776;28;20048;-48
2023/04/07 11:21:04;;;;;;;10.73;6.68;;;12.10;91.50;;;;;;5091166;28;20006;-48
2023/04/07 11:23:39;;;;;;;11.63;6.97;;;12.00;91.70;;;;;;5070413;28;20102;-48
2023/04/07 11:26:07;;;;;;;12.65;7.00;;;12.20;91.70;;;;;;5092118;28;20040;-48
2023/04/07 11:28:35;;;;;;;10.63;7.30;;;12.40;90.70;;;;;;5093226;28;20040;-48
2023/04/07 11:31:03;;;;;;;11.60;6.20;;;12.40;90.90;;;;;;5093787;28;20051;-48
2023/04/07 11:33:31;;;;;;;9.00;5.50;;;12.70;91.00;;;;;;5061412;28;20401;-52
2023/04/07 11:36:00;;;;;;;12.10;6.03;;;12.80;90.00;;;;;;5094588;28;20447;-48
2023/04/07 11:38:33;;;;;;;9.55;6.10;;;12.90;90.20;;;;;;5093721;28;20416;-47
2023/04/07 11:41:13;;;;;;;10.73;5.97;;;12.80;89.80;;;;;;5094227;28;20074;-49
2023/04/07 11:43:40;;;;;;;8.75;5.95;;;13.20;91.50;;;;;;5089829;28;20484;-48
2023/04/07 11:46:10;;;;;;;7.72;5.53;;;13.50;90.70;;;;;;5094341;28;20040;-48
2023/04/07 11:48:38;;;;;;;7.32;5.30;;;13.70;87.90;;;;;;5093586;28;20044;-49
2023/04/07 11:51:13;;;;;;;10.07;5.05;;;13.80;86.20;;;;;;5077986;28;20457;-49
2023/04/07 11:53:40;;;;;;;9.25;5.75;;;13.70;87.30;;;;;;5094179;28;20116;-48
2023/04/07 11:56:17;;;;;;;8.27;5.65;;;14.00;87.40;;;;;;5089774;28;20157;-50
2023/04/07 11:58:49;;;;;;;9.00;5.85;;;14.30;85.90;;;;;;5089395;28;20050;-47
2023/04/07 12:01:16;;;;;;;8.02;5.43;;;13.80;86.60;;;;;;5072835;28;20097;-49
2023/04/07 12:04:03;;;;;;;7.75;4.65;;;14.20;88.30;;;;;;5073683;28;20120;-50
2023/04/07 12:06:33;;;;;;;7.90;4.70;;;14.40;85.10;;;;;;5085878;28;20052;-48
2023/04/07 12:09:01;;;;;;;5.43;4.68;;;14.40;88.40;;;;;;5093431;28;20048;-49
2023/04/07 12:11:29;;;;;;;6.85;4.28;;;14.30;82.20;;;;;;5093626;28;20098;-49
2023/04/07 12:13:56;;;;;;;;;;;14.10;84.30;;;;;;5090922;28;20048;-50
2023/04/07 12:16:23;;;;;;;7.07;4.10;;;14.10;88.20;;;;;;5094103;28;19974;-49
2023/04/07 12:18:50;;;;;;;6.95;4.43;;;14.00;84.00;;;;;;5091638;28;20047;-48
2023/04/07 12:21:18;;;;;;;5.53;4.10;;;14.00;87.20;;;;;;5093714;28;20559;-48
2023/04/07 12:23:46;;;;;;;5.47;3.70;;;13.90;84.70;;;;;;5081179;28;20120;-49
2023/04/07 12:26:13;;;;;;;6.30;4.13;;;13.90;84.90;;;;;;5093610;28;20119;-48
2023/04/07 12:28:40;;;;;;;5.60;3.92;;;14.00;86.10;;;;;;5093515;28;20465;-49
2023/04/07 12:31:32;;;;;;;6.85;4.05;;;14.10;85.20;;;;;;5082562;28;20067;-82
2023/04/07 12:33:59;;;;;;;7.72;4.45;;;14.20;85.70;;;;;;5004018;28;20050;-54
2023/04/07 12:36:26;;;;;;;7.03;4.53;;;14.10;84.40;;;;;;5013353;28;20066;-52
2023/04/07 12:38:53;;;;;;;7.43;4.03;;;14.10;84.50;;;;;;5012762;28;20078;-51
2023/04/07 12:41:20;;;;;;;6.03;3.70;;;14.10;85.60;;;;;;5013447;28;20076;-55
2023/04/07 12:43:47;;;;;;;5.32;3.97;;;14.10;84.20;;;;;;5004241;28;20121;-54
2023/04/07 12:46:14;;;;;;;7.05;3.85;;;14.10;84.40;;;;;;5013201;28;20042;-51
2023/04/07 12:48:41;;;;;;;6.90;4.10;;;14.20;85.00;;;;;;5012389;28;20074;-52
2023/04/07 12:51:08;;;;;;;5.03;3.15;;;14.30;83.50;;;;;;5012739;28;20045;-51
2023/04/07 12:53:35;;;;;;;5.97;3.30;;;14.30;80.00;;;;;;5013178;28;20494;-51
2023/04/07 12:56:02;;;;;;;7.53;3.78;;;14.50;80.80;;;;;;5004252;28;20105;-51
2023/04/07 12:58:28;;;;;;;5.60;3.72;;;14.60;81.00;;;;;;5007606;28;20097;-50
2023/04/07 13:00:55;;;;;;;6.10;3.55;;;14.70;83.50;;;;;;4993252;28;20141;-51